Taylors, SC (29687)

7:55 PM EST on December 20, 2014 (GMT -0500)
Edward's Forest | Change Station
CLOSE
Current Station
Personal Weather Station
Location: Taylors, SC
Elevation: 1000 ft
Nearby Weather Stations

Elev 1000 ft 34.93 °N, 82.33 °W | Updated 3 seconds ago

Overcast
Overcast
42.0 °F
Feels Like 42 °F
N
0.0
Wind Variable Wind from NE
Gusts 0.0 mph

Today
High -- | Low -- °F
--% Chance of Precip.
Yesterday
High -- | Low -- °F
Precip. -- in
7:32 AM 5:21 PM
Waning Crescent, 1% visible
Pressure 30.22 in
Visibility 7.0 miles
Clouds Few 600 ft
Overcast 1600 ft
Windchill 42 °F
Dew Point 41 °F
Humidity 95%
Rainfall 0.05 in
Snow Depth Not available.
UV 0 out of 12
Pollen .90 out of 12
Air Quality Not available.
Flu Activity Not available.
SPECI KGMU 210000Z 05005KT 7SM FEW006 OVC016 06/04 A3022 RMK AO2 T00610039

More Conditions Fewer Conditions

Pressure 30.22 in
Visibility 7.0 miles
Clouds Few 600 ft
Overcast 1600 ft
Windchill 42 °F
Dew Point 41 °F
Humidity 95%
Rainfall 0.05 in
Snow Depth Not available.
UV 0 out of 12
Pollen .90 out of 12
Air Quality Not available.
Flu Activity Not available.
SPECI KGMU 210000Z 05005KT 7SM FEW006 OVC016 06/04 A3022 RMK AO2 T00610039

More Conditions Fewer Conditions

10-Day Weather Forecast

Almanac

Astronomy

Dec. 20, 2014 Rise Set
Actual Time
Civil Twilight
Nautical Twilight
Astronomical Twilight
Moon
Length of Visible Light
Length of Day
Tomorrow will be .
, % of the Moon is Illuminated

Today's Extremes

State Highs State Lows

Community

WunderPhotos

Upload Photos

1,779,326 photos uploaded!

WunderBlogs® & News

Nearby

Air Quality

  Air Quality AQ Index Pollutant
Not available.

Snow Depth

Station Depth Elevation

Earthquake Activity

City Distance Mag. Time & Date
Minimum magnitude displayed is 2.5.

Coastal Water Temperatures

Place Temperature

Nearby Weather Stations